Free Trial

AZEK (AZEK) Institutional Ownership

$46.25
-0.38 (-0.81%)
(As of 05/20/2024 ET)

Institutional Ownership Changes (13F Filings) for AZEK (NYSE:AZEK)

Current
Institutional Ownership
Percentage
97.44%
Number of
Institutional Buyers
(last 12 months)
174
Total
Institutional Inflows
(last 12 months)
$770.34M
Number of
Institutional Sellers
(last 12 months)
92
Total
Institutional Outflows
(last 12 months)
$1.03B
Get AZEK Insider Trade Alerts

Want to know when executives and insiders are buying or selling AZEK stock? Sign up for InsiderTrades.com's daily newsletter to get the latest insider transactions delivered to your inbox daily.

Skip Chart & View Institutional Buying and Selling Data

AZEK Institutional Buying and Selling by Quarter

AZEK Major Shareholders & Ownership History

Reporting DateMajor Shareholder NameShares HeldMarket Value% of PortfolioQuarterly Change in SharesOwnership in CompanyDetails
5/17/2024 iA Global Asset Management Inc.13,116$659K0.0%-22.7%0.009%
5/17/2024 Comerica Bank147,912$7.43M0.0%-10.9%0.100%
5/17/2024 Tidal Investments LLC7,060$355K0.0%+3.7%0.005%
5/16/2024 Redwood Investment Management LLC29,843$1.50M0.1%-18.6%0.020%
5/16/2024 California State Teachers Retirement System134,159$6.74M0.0%-5.3%0.091%
5/16/2024 Interval Partners LP283,085$14.22M0.4%N/A0.192%
5/16/2024 Janus Henderson Group PLC59,331$2.98M0.0%-9.7%0.040%
5/16/2024 Bayesian Capital Management LP44,600$2.24M0.2%N/A0.030%
5/15/2024 Public Employees Retirement System of Ohio146,806$7.37M0.0%-15.1%0.099%
5/15/2024 Price T Rowe Associates Inc. MD1,466,145$73.63M0.0%+66.8%0.993%
5/15/2024 BOKF NA94,695$4.65M0.1%-1.2%0.064%
5/15/2024 Lazard Asset Management LLC321,843$16.16M0.0%-0.3%0.218%
5/15/2024 Quadrature Capital Ltd17,840$896K0.0%+68.2%0.012%
5/14/2024 Capital Research Global Investors9,690,263$486.65M0.1%-8.8%6.561%
5/14/2024 Pinnbrook Capital Management LP85,180$4.28M0.4%N/A0.058%
5/14/2024 EntryPoint Capital LLC4,443$223K0.2%+69.9%0.003%
5/14/2024 Natixis Investment Managers International15,110$759K0.1%+122.5%0.010%
5/14/2024 Healthcare of Ontario Pension Plan Trust Fund7,566$380K0.0%N/A0.005%
5/14/2024 CANADA LIFE ASSURANCE Co36,912$1.86M0.0%+180.4%0.025%
5/13/2024 Bessemer Group Inc.308,554$15.49M0.0%+6.7%0.209%
5/13/2024 Seven Eight Capital LP20,180$1.01M0.1%-47.6%0.014%
5/13/2024 O Shaughnessy Asset Management LLC5,676$285K0.0%N/A0.004%
5/11/2024 Covestor Ltd2,393$120K0.1%+631.8%0.002%
5/11/2024 Edgestream Partners L.P.82,762$4.16M0.2%-12.9%0.056%
5/10/2024 Acadian Asset Management LLC8,756$439K0.0%N/A0.006%
5/10/2024 Vanguard Group Inc.13,482,323$677.08M0.0%+3.2%9.128%
5/10/2024 Westfield Capital Management Co. LP1,487,700$74.71M0.4%+1.7%1.007%
5/9/2024 Blair William & Co. IL19,759$992K0.0%-46.8%0.013%
5/9/2024 Lord Abbett & CO. LLC524,892$26.36M0.1%N/A0.355%
5/9/2024 First Eagle Investment Management LLC141,325$7.10M0.0%-0.5%0.096%
5/9/2024 State Board of Administration of Florida Retirement System35,199$1.77M0.0%-43.7%0.024%
5/8/2024 BNP PARIBAS ASSET MANAGEMENT Holding S.A.622,902$31.28M0.1%-0.8%0.422%
5/8/2024 US Bancorp DE9,639$484K0.0%-28.1%0.007%
5/8/2024 Russell Investments Group Ltd.206,138$10.35M0.0%+44.5%0.140%
5/7/2024 Sei Investments Co.459,982$23.10M0.0%+2.0%0.311%
5/7/2024 Redmond Asset Management LLC57,388$2.88M0.9%-1.7%0.039%
5/7/2024 Swiss National Bank262,550$13.19M0.0%-0.9%0.178%
5/7/2024 TimesSquare Capital Management LLC750,737$37.70M0.5%-2.5%0.508%
5/7/2024 Lisanti Capital Growth LLC117,675$5.91M1.4%+76.2%0.080%
5/7/2024 SG Americas Securities LLC30,063$1.51M0.0%+573.2%0.020%
Read this before you buy AI stocks (Ad)

BREAKING: New "Formula" Could Lead to Huge AI Payouts When you click here and see what Elon Musk's new invention does… Investors — including multiple billionaires — are now tapping into a unique AI secret to pocket huge, consistent payouts.

Starting today, you could siphon a new stream of income from this $3 billion pool of cash.
5/7/2024 Sciencast Management LP14,993$753K0.5%N/A0.010%
5/6/2024 Quantbot Technologies LP93,238$4.68M0.3%+93.0%0.063%
5/6/2024 Envestnet Portfolio Solutions Inc.43,803$2.20M0.0%-21.3%0.030%
5/6/2024 ORG Partners LLC709$35K0.1%N/A0.000%
5/6/2024 Duality Advisers LP27,031$1.36M0.1%N/A0.018%
5/3/2024 BI Asset Management Fondsmaeglerselskab A S2,043$103K0.0%N/A0.001%
5/3/2024 Whittier Trust Co.744$37K0.0%N/A0.001%
5/2/2024 Jennison Associates LLC912,489$45.83M0.0%+15.7%0.618%
5/2/2024 FORA Capital LLC24,264$1.22M0.1%N/A0.016%
5/2/2024 Thompson Davis & CO. Inc.4,885$245K0.2%N/A0.003%
5/1/2024 Capstone Investment Advisors LLC9,882$496K0.0%N/A0.007%
5/1/2024 Precision Wealth Strategies LLC8,283$416K0.4%N/A0.006%
5/1/2024 Oak Ridge Investments LLC87,534$4.40M0.4%-3.0%0.059%
5/1/2024 Diversify Advisory Services LLC9,548$469K0.0%N/A0.006%
4/30/2024 Retirement Systems of Alabama139,731$7.02M0.0%-25.5%0.095%
4/30/2024 Norden Group LLC15,961$802K0.1%+47.7%0.011%
4/30/2024 Claret Asset Management Corp4,588$230K0.0%N/A0.003%
4/30/2024 Allspring Global Investments Holdings LLC965,863$48.51M0.1%-28.3%0.654%
4/29/2024 Principal Financial Group Inc.12,189$612K0.0%+46.9%0.008%
4/26/2024 Peregrine Capital Management LLC177,686$8.92M0.3%-19.0%0.120%
4/25/2024 WCM Investment Management LLC529,473$26.59M0.1%-20.9%0.358%
4/25/2024 Equitable Trust Co.10,120$508K0.0%-19.2%0.007%
4/24/2024 Assenagon Asset Management S.A.269,219$13.52M0.0%+2,271.8%0.182%
4/23/2024 Venturi Wealth Management LLC707$36K0.0%+58.9%0.000%
4/23/2024 Gradient Investments LLC104,512$5.25M0.1%-21.8%0.071%
4/23/2024 Fifth Third Bancorp9,431$474K0.0%-12.6%0.006%
4/19/2024 Leeward Investments LLC MA258,032$12.96M0.6%-14.5%0.175%
4/19/2024 Norden Group LLC144,234$7.24M0.1%+1,234.4%0.098%
4/18/2024 Wasatch Advisors LP1,813,325$91.07M0.5%-18.2%1.228%
4/18/2024 Allspring Global Investments Holdings LLC965,863$48.51M0.1%-28.3%0.654%
4/18/2024 Vaughan Nelson Investment Management L.P.633,727$31.83M0.3%+143.2%0.429%
4/18/2024 Congress Wealth Management LLC DE 80,390$4.04M0.1%+2.8%0.054%
4/16/2024 Hodges Capital Management Inc.21,000$1.06M0.1%-54.4%0.014%
4/16/2024 Artemis Investment Management LLP1,146,641$57.56M0.7%-13.2%0.776%
4/15/2024 Counterpoint Mutual Funds LLC5,725$288K0.1%N/A0.004%
4/15/2024 Thompson Investment Management Inc.11,265$566K0.1%-20.2%0.008%
4/11/2024 Congress Asset Management Co. MA237,326$11.92M0.1%+26.3%0.161%
4/10/2024 Park Avenue Securities LLC4,527$227K0.0%N/A0.003%
4/5/2024 Los Angeles Capital Management LLC232,643$11.68M0.0%N/A0.158%
4/5/2024 NBC Securities Inc.11,585$581K0.1%-8.7%0.008%
3/26/2024 HighPoint Advisor Group LLC7,149$273K0.0%N/A0.005%
3/25/2024 Quadrature Capital Ltd10,604$406K0.0%N/A0.007%
3/22/2024 PNC Financial Services Group Inc.25,456$974K0.0%+10.6%0.017%
3/11/2024 Vanguard Group Inc.13,069,026$499.89M0.0%+0.4%8.848%
3/5/2024 Wellington Management Group LLP12,152,986$464.85M0.1%+0.3%8.228%
3/4/2024 Congress Asset Management Co. MA187,866$7.19M0.1%+31.6%0.127%
2/14/2024 Mairs & Power Inc.383,353$14.66M0.2%-5.1%0.260%
2/14/2024 Scalar Gauge Management LLC162,000$6.20M5.9%N/A0.110%
2/14/2024 Wasatch Advisors LP2,216,800$84.79M0.5%+1.5%1.501%
2/14/2024 Ranger Investment Management L.P.884,645$33.84M2.1%+64.5%0.599%
**Breaking News** LIttle Known Biotech Company Does $41 Million In Q1! (Ad)

Learn more about why Zack’s has increased its price target on this company to a whopping $23.25!

Click for Zack's full report
2/14/2024 Sea Cliff Partners Management LP422,843$16.17M6.3%N/A0.286%
2/14/2024 Natixis Investment Managers International6,790$260K0.0%-11.3%0.005%
2/14/2024 Seven Eight Capital LP38,494$1.47M0.2%N/A0.026%
2/14/2024 Schroder Investment Management Group1,137,050$43.49M0.1%-13.3%0.770%
2/13/2024 Capital Research Global Investors10,626,209$406.45M0.1%+0.0%7.194%
2/13/2024 Stephens Investment Management Group LLC1,081,356$41.36M0.6%-10.6%0.732%
2/13/2024 CIBC Private Wealth Group LLC40,655$1.56M0.0%-5.0%0.028%
2/13/2024 Rafferty Asset Management LLC45,952$1.76M0.0%+27.7%0.031%
2/13/2024 The Manufacturers Life Insurance Company 666,369$25.49M0.0%-6.1%0.451%
2/12/2024 Alberta Investment Management Corp88,252$3.38M0.0%+23.7%0.060%
(Data available from 1/1/2016 forward)

AZEK Institutional Ownership - Frequently Asked Questions

Who are the largest shareholders of AZEK shares?

During the previous two years, 273 institutional investors and hedge funds held shares of AZEK. The most heavily invested institutionals were Vanguard Group Inc. ($677.08M), Capital Research Global Investors ($486.65M), Wellington Management Group LLP ($464.85M), Ares Management LLC ($337.24M), Massachusetts Financial Services Co. MA ($291.95M), Dimensional Fund Advisors LP ($104.61M), and Wasatch Advisors LP ($91.07M).Learn more on AZEK's institutional investors.

What percentage of AZEK stock is owned by institutional investors?

97.44% of AZEK stock is owned by institutional investors. Learn more on AZEK's institutional investor holdings.

Which institutional investors have been buying AZEK stock?

Of the 242 institutional investors that purchased AZEK stock in the last 24 months, the following investors and hedge funds have bought the highest volume of shares: Wellington Management Group LLP ($2.20M), Massachusetts Financial Services Co. MA ($2.00M), JPMorgan Chase & Co. ($1.99M), Dimensional Fund Advisors LP ($1.95M), Allspring Global Investments Holdings LLC ($1.76M), Artemis Investment Management LLP ($1.54M), and Westfield Capital Management Co. LP ($1.47M).

How much institutional buying is happening at AZEK?

Institutional investors have bought a total of 48,446,271 shares in the last 24 months. This purchase volume represents approximately $1.28B in transactions.

Which AZEK major shareholders have been selling company stock?

Of the 118 institutional investors that sold AZEK stock in the last 24 months, the following investors and hedge funds have sold the highest volume of shares: Ontario Teachers Pension Plan Board ($22.48M), Ares Management LLC ($4.77M), Impax Asset Management Group plc ($3.65M), Allspring Global Investments Holdings LLC ($3.04M), FMR LLC ($2.80M), Brown Advisory Inc. ($2.16M), and TimesSquare Capital Management LLC ($1.62M).

How much institutional selling is happening at AZEK?

Institutional investors have sold a total of 59,359,026 shares in the last 24 months. This volume of shares sold represents approximately $1.59B in transactions.


This page (NYSE:AZEK) was last updated on 5/21/2024 by MarketBeat.com Staff

From Our Partners